Time;durP1;ratioP1;P1;durP2;ratioP2;P2;SDS_P1;SDS_P2;PMS_P1;PMS_P2;Temp;Humidity;BMP_temperature;BMP_pressure;BME280_temperature;BME280_humidity;BME280_pressure;Samples;Min_cycle;Max_cycle;Signal;HPM_P1;HPM_P2
2023/11/26 00:00:39;;;;;;;1999.90;999.90;;;;;;;;;;5066876;28;20045;-89
2023/11/26 00:03:06;;;;;;;1999.90;999.90;;;;;;;;;;5067958;28;20047;-88
2023/11/26 00:05:33;;;;;;;1999.90;999.90;;;;;;;;;;5060691;28;20087;-88
2023/11/26 00:07:59;;;;;;;1999.90;999.90;;;;;;;;;;5068432;28;20055;-88
2023/11/26 00:10:26;;;;;;;1999.90;999.90;;;;;;;;;;5062220;28;20044;-86
2023/11/26 00:12:53;;;;;;;1999.90;999.90;;;;;;;;;;5061970;28;20080;-87
2023/11/26 00:15:21;;;;;;;1999.90;999.90;;;;;;;;;;5060916;28;20102;-87
2023/11/26 00:17:48;;;;;;;1999.90;999.90;;;;;;;;;;5072469;28;20053;-88
2023/11/26 00:20:16;;;;;;;1999.90;999.90;;;;;;;;;;5072875;28;20053;-87
2023/11/26 00:22:43;;;;;;;1999.90;999.90;;;;;;;;;;5067188;28;20055;-87
2023/11/26 00:25:09;;;;;;;1999.90;999.90;;;;;;;;;;5069874;28;20132;-88
2023/11/26 00:27:36;;;;;;;1999.90;999.90;;;;;;;;;;5063172;28;20044;-88
2023/11/26 00:30:04;;;;;;;1999.90;999.90;;;;;;;;;;5061009;28;20044;-88
2023/11/26 00:32:32;;;;;;;1999.90;999.90;;;;;;;;;;5067416;28;20086;-88
2023/11/26 00:34:59;;;;;;;1999.90;999.90;;;;;;;;;;5062302;28;20046;-87
2023/11/26 00:37:26;;;;;;;1999.90;999.90;;;;;;;;;;5067915;28;20079;-87
2023/11/26 00:39:52;;;;;;;1999.90;999.90;;;;;;;;;;5073719;28;20108;-86
2023/11/26 00:42:19;;;;;;;1999.90;999.90;;;;;;;;;;5075721;28;20053;-88
2023/11/26 00:44:46;;;;;;;1999.90;999.90;;;;;;;;;;5077096;28;20072;-89
2023/11/26 00:47:12;;;;;;;1999.90;999.90;;;;;;;;;;5074436;28;20576;-88
2023/11/26 00:49:40;;;;;;;1999.90;999.90;;;;;;;;;;5073436;28;20109;-86
2023/11/26 00:52:07;;;;;;;1999.90;999.90;;;;;;;;;;5062867;28;20402;-87
2023/11/26 00:54:34;;;;;;;1999.90;999.90;;;;;;;;;;5076261;28;20055;-87
2023/11/26 00:57:01;;;;;;;1999.90;999.90;;;;;;;;;;5077612;28;20048;-87
2023/11/26 00:59:27;;;;;;;1999.90;999.90;;;;;;;;;;5085676;28;20040;-89
2023/11/26 01:01:54;;;;;;;1999.90;999.90;;;;;;;;;;5068952;28;20573;-88
2023/11/26 01:04:21;;;;;;;1999.90;999.90;;;;;;;;;;5073340;28;20055;-88
2023/11/26 01:06:49;;;;;;;1999.90;999.90;;;;;;;;;;5074796;28;20491;-88
2023/11/26 01:09:16;;;;;;;1999.90;999.90;;;;;;;;;;5070554;28;20059;-87
2023/11/26 01:11:43;;;;;;;1999.90;999.90;;;;;;;;;;5064174;28;20117;-87
2023/11/26 01:14:10;;;;;;;1999.90;999.90;;;;;;;;;;5062613;28;20498;-88
2023/11/26 01:16:36;;;;;;;1999.90;999.90;;;;;;;;;;5061557;28;20165;-88
2023/11/26 01:19:03;;;;;;;1999.90;999.90;;;;;;;;;;5057991;28;20051;-86
2023/11/26 01:21:29;;;;;;;1999.90;999.90;;;;;;;;;;5062315;28;20325;-87
2023/11/26 01:23:57;;;;;;;1999.90;999.90;;;;;;;;;;5059514;28;20055;-86
2023/11/26 01:26:24;;;;;;;1999.90;999.90;;;;;;;;;;5060888;28;20485;-86
2023/11/26 01:28:50;;;;;;;1999.90;999.90;;;;;;;;;;5066401;28;20044;-84
2023/11/26 01:31:17;;;;;;;1999.90;999.90;;;;;;;;;;5060142;28;20486;-85
2023/11/26 01:33:44;;;;;;;1999.90;999.90;;;;;;;;;;5074942;28;20036;-84
2023/11/26 01:36:11;;;;;;;1999.90;999.90;;;;;;;;;;5062805;28;20550;-84
2023/11/26 01:38:37;;;;;;;1999.90;999.90;;;;;;;;;;5059148;28;20500;-85
2023/11/26 01:41:05;;;;;;;1999.90;999.90;;;;;;;;;;5058606;28;20055;-85
2023/11/26 01:43:32;;;;;;;1999.90;999.90;;;;;;;;;;5066274;28;20112;-85
2023/11/26 01:46:04;;;;;;;1999.90;999.90;;;;;;;;;;5075319;28;20405;-85
2023/11/26 01:48:31;;;;;;;1999.90;999.90;;;;;;;;;;5070064;28;20051;-85
2023/11/26 01:50:58;;;;;;;1999.90;999.90;;;;;;;;;;5065800;28;20075;-85
2023/11/26 01:53:25;;;;;;;1999.90;999.90;;;;;;;;;;5071346;28;20516;-85
2023/11/26 01:55:52;;;;;;;1999.90;999.90;;;;;;;;;;5066172;28;20053;-85
2023/11/26 01:58:20;;;;;;;1999.90;999.90;;;;;;;;;;5063275;28;20058;-85
2023/11/26 02:00:47;;;;;;;1999.90;999.90;;;;;;;;;;5058784;28;20041;-85
2023/11/26 02:03:14;;;;;;;1999.90;999.90;;;;;;;;;;5064950;28;20040;-84
2023/11/26 02:05:40;;;;;;;1999.90;999.90;;;;;;;;;;5068328;28;20043;-85
2023/11/26 02:08:07;;;;;;;1999.90;999.90;;;;;;;;;;5062723;28;20136;-85
2023/11/26 02:10:33;;;;;;;1999.90;999.90;;;;;;;;;;5059830;28;20489;-85
2023/11/26 02:13:04;;;;;;;1999.90;999.90;;;;;;;;;;5060375;28;20044;-85
2023/11/26 02:15:32;;;;;;;1999.90;999.90;;;;;;;;;;5054915;28;20531;-85
2023/11/26 02:17:58;;;;;;;1999.90;999.90;;;;;;;;;;5056150;28;20041;-85
2023/11/26 02:20:25;;;;;;;1999.90;999.90;;;;;;;;;;5058561;28;20048;-84
2023/11/26 02:22:52;;;;;;;1999.90;999.90;;;;;;;;;;5064406;28;20064;-85
2023/11/26 02:25:23;;;;;;;1999.90;999.90;;;;;;;;;;5060343;28;20055;-84
2023/11/26 02:27:50;;;;;;;1999.90;999.90;;;;;;;;;;5058737;28;20049;-83
2023/11/26 02:30:20;;;;;;;1999.90;999.90;;;;;;;;;;5063027;28;20049;-84
2023/11/26 02:32:46;;;;;;;1999.90;999.90;;;;;;;;;;5059131;28;20048;-84
2023/11/26 02:35:13;;;;;;;1999.90;999.90;;;;;;;;;;5057227;28;20045;-84
2023/11/26 02:37:39;;;;;;;1999.90;999.90;;;;;;;;;;5058300;28;20047;-84
2023/11/26 02:40:07;;;;;;;1999.90;999.90;;;;;;;;;;5056594;28;20050;-84
2023/11/26 02:42:36;;;;;;;1999.90;999.90;;;;;;;;;;5056878;28;20490;-85
2023/11/26 02:45:03;;;;;;;1999.90;999.90;;;;;;;;;;5060107;28;20072;-84
2023/11/26 02:47:30;;;;;;;1999.90;999.90;;;;;;;;;;5058081;28;20122;-84
2023/11/26 02:49:57;;;;;;;1999.90;999.90;;;;;;;;;;5057464;28;20049;-84
2023/11/26 02:52:23;;;;;;;1999.90;999.90;;;;;;;;;;5056268;28;20146;-84
2023/11/26 02:54:50;;;;;;;1999.90;999.90;;;;;;;;;;5057239;28;20444;-84
2023/11/26 02:57:16;;;;;;;1999.90;999.90;;;;;;;;;;5060335;28;20049;-84
2023/11/26 02:59:45;;;;;;;1999.90;999.90;;;;;;;;;;5056588;28;20059;-84
2023/11/26 03:02:11;;;;;;;1999.90;999.90;;;;;;;;;;5061682;28;20532;-84
2023/11/26 03:04:38;;;;;;;1999.90;999.90;;;;;;;;;;5058981;28;20391;-84
2023/11/26 03:07:05;;;;;;;1999.90;999.90;;;;;;;;;;5061169;28;20060;-84
2023/11/26 03:12:56;;;;;;;1999.90;999.90;;;;;;;;;;5061088;28;20522;-85
2023/11/26 03:15:10;;;;;;;1999.90;999.90;;;;;;;;;;5062869;28;20146;-85
2023/11/26 03:17:37;;;;;;;1999.90;999.90;;;;;;;;;;5059195;28;20045;-84
2023/11/26 03:20:06;;;;;;;1999.90;999.90;;;;;;;;;;5059591;28;20122;-84
2023/11/26 03:22:33;;;;;;;1999.90;999.90;;;;;;;;;;5056969;28;20048;-84
2023/11/26 03:24:59;;;;;;;1999.90;999.90;;;;;;;;;;5059711;28;20056;-85
2023/11/26 03:27:26;;;;;;;1999.90;999.90;;;;;;;;;;5058036;28;20045;-84
2023/11/26 03:29:52;;;;;;;1999.90;999.90;;;;;;;;;;5055399;28;20048;-84
2023/11/26 03:32:20;;;;;;;1999.90;999.90;;;;;;;;;;5058145;28;20064;-84
2023/11/26 03:34:48;;;;;;;1999.90;999.90;;;;;;;;;;5049708;28;20445;-84
2023/11/26 03:37:15;;;;;;;1999.90;999.90;;;;;;;;;;5052165;28;20053;-84
2023/11/26 03:39:45;;;;;;;1999.90;999.90;;;;;;;;;;5059588;28;20055;-84
2023/11/26 03:42:11;;;;;;;1999.90;999.90;;;;;;;;;;5055709;28;20056;-84
2023/11/26 03:44:38;;;;;;;1999.90;999.90;;;;;;;;;;5057122;28;20048;-84
2023/11/26 03:47:04;;;;;;;1999.90;999.90;;;;;;;;;;5055525;28;20059;-84
2023/11/26 03:49:32;;;;;;;1999.90;999.90;;;;;;;;;;5056549;28;20097;-85
2023/11/26 03:51:59;;;;;;;1999.90;999.90;;;;;;;;;;5057238;28;20505;-84
2023/11/26 03:54:25;;;;;;;1999.90;999.90;;;;;;;;;;5057968;28;20060;-84
2023/11/26 03:56:53;;;;;;;1999.90;999.90;;;;;;;;;;5059247;28;20040;-85
2023/11/26 03:59:21;;;;;;;1999.90;999.90;;;;;;;;;;5053062;28;20048;-85
2023/11/26 04:01:47;;;;;;;1999.90;999.90;;;;;;;;;;5054423;28;20524;-85
2023/11/26 04:04:14;;;;;;;1999.90;999.90;;;;;;;;;;5059829;28;20060;-85
2023/11/26 04:06:42;;;;;;;1999.90;999.90;;;;;;;;;;5059322;28;20040;-85
2023/11/26 04:09:10;;;;;;;1999.90;999.90;;;;;;;;;;5063928;28;20044;-85
2023/11/26 04:11:36;;;;;;;1999.90;999.90;;;;;;;;;;5059879;28;20444;-85
2023/11/26 04:14:03;;;;;;;1999.90;999.90;;;;;;;;;;5047936;28;20057;-85
2023/11/26 04:16:30;;;;;;;1999.90;999.90;;;;;;;;;;5060062;28;20040;-85
2023/11/26 04:18:56;;;;;;;1999.90;999.90;;;;;;;;;;5058365;28;20071;-85
2023/11/26 04:21:22;;;;;;;1999.90;999.90;;;;;;;;;;5061957;28;20048;-85
2023/11/26 04:23:50;;;;;;;1999.90;999.90;;;;;;;;;;5063991;28;20045;-84
2023/11/26 04:26:16;;;;;;;1999.90;999.90;;;;;;;;;;5058743;28;20040;-85
2023/11/26 04:28:43;;;;;;;1999.90;999.90;;;;;;;;;;5054776;28;20117;-85
2023/11/26 04:31:09;;;;;;;1999.90;999.90;;;;;;;;;;5061130;28;20051;-85
2023/11/26 04:33:36;;;;;;;1999.90;999.90;;;;;;;;;;5066331;28;20048;-85
2023/11/26 04:36:02;;;;;;;1999.90;999.90;;;;;;;;;;5052616;28;20044;-85
2023/11/26 04:38:29;;;;;;;1999.90;999.90;;;;;;;;;;5056918;28;20139;-85
2023/11/26 04:40:57;;;;;;;1999.90;999.90;;;;;;;;;;5056549;28;20056;-85
2023/11/26 04:43:23;;;;;;;1999.90;999.90;;;;;;;;;;5057733;28;20045;-84
2023/11/26 04:45:50;;;;;;;1999.90;999.90;;;;;;;;;;5057357;28;20048;-84
2023/11/26 04:48:16;;;;;;;1999.90;999.90;;;;;;;;;;5057148;28;20397;-85
2023/11/26 04:50:43;;;;;;;1999.90;999.90;;;;;;;;;;5059590;28;20052;-85
2023/11/26 04:53:09;;;;;;;1999.90;999.90;;;;;;;;;;5057752;28;20144;-85
2023/11/26 04:55:36;;;;;;;1999.90;999.90;;;;;;;;;;5061317;28;20053;-84
2023/11/26 04:58:04;;;;;;;1999.90;999.90;;;;;;;;;;5060399;28;20098;-84
2023/11/26 05:00:30;;;;;;;1999.90;999.90;;;;;;;;;;5061445;28;20052;-85
2023/11/26 05:02:57;;;;;;;1999.90;999.90;;;;;;;;;;5063678;28;20052;-84
2023/11/26 05:05:24;;;;;;;1999.90;999.90;;;;;;;;;;5061428;28;20096;-84
2023/11/26 05:07:50;;;;;;;1999.90;999.90;;;;;;;;;;5054824;28;20410;-85
2023/11/26 05:10:17;;;;;;;1999.90;999.90;;;;;;;;;;5061208;28;20049;-84
2023/11/26 05:12:44;;;;;;;1999.90;999.90;;;;;;;;;;5059019;28;20053;-85
2023/11/26 05:15:12;;;;;;;1999.90;999.90;;;;;;;;;;5058533;28;20052;-84
2023/11/26 05:17:38;;;;;;;1999.90;999.90;;;;;;;;;;5060684;28;20118;-85
2023/11/26 05:20:11;;;;;;;1999.90;999.90;;;;;;;;;;5058637;28;20055;-84
2023/11/26 05:22:38;;;;;;;1999.90;999.90;;;;;;;;;;5058305;28;20072;-85
2023/11/26 05:25:05;;;;;;;1999.90;999.90;;;;;;;;;;5058378;28;20064;-84
2023/11/26 05:27:32;;;;;;;1999.90;999.90;;;;;;;;;;5057273;28;20044;-85
2023/11/26 05:30:01;;;;;;;1999.90;999.90;;;;;;;;;;5058808;28;20041;-84
2023/11/26 05:32:29;;;;;;;1999.90;999.90;;;;;;;;;;5058510;28;20045;-84
2023/11/26 05:34:55;;;;;;;1999.90;999.90;;;;;;;;;;5059997;28;20099;-84
2023/11/26 05:37:22;;;;;;;1999.90;999.90;;;;;;;;;;5058755;28;20080;-84
2023/11/26 05:39:49;;;;;;;1999.90;999.90;;;;;;;;;;5058068;28;20106;-84
2023/11/26 05:42:15;;;;;;;1999.90;999.90;;;;;;;;;;5054784;28;20056;-84
2023/11/26 05:44:42;;;;;;;1999.90;999.90;;;;;;;;;;5060782;28;20041;-85
2023/11/26 05:47:08;;;;;;;1999.90;999.90;;;;;;;;;;5055921;28;20420;-84
2023/11/26 05:49:36;;;;;;;1999.90;999.90;;;;;;;;;;5057284;28;20045;-85
2023/11/26 05:52:03;;;;;;;1999.90;999.90;;;;;;;;;;5059534;28;20041;-84
2023/11/26 05:54:29;;;;;;;1999.90;999.90;;;;;;;;;;5057953;28;20053;-84
2023/11/26 05:56:56;;;;;;;1999.90;999.90;;;;;;;;;;5060104;28;20416;-84
2023/11/26 05:59:22;;;;;;;1999.90;999.90;;;;;;;;;;5064456;28;20404;-85
2023/11/26 06:01:49;;;;;;;1999.90;999.90;;;;;;;;;;5060358;28;20049;-85
2023/11/26 06:04:16;;;;;;;1999.90;999.90;;;;;;;;;;5059931;28;20057;-84
2023/11/26 06:06:44;;;;;;;1999.90;999.90;;;;;;;;;;5060029;28;20477;-84
2023/11/26 06:09:10;;;;;;;1999.90;999.90;;;;;;;;;;5039962;28;20050;-84
2023/11/26 06:11:37;;;;;;;1999.90;999.90;;;;;;;;;;5055519;28;20496;-85
2023/11/26 06:14:04;;;;;;;1999.90;999.90;;;;;;;;;;5058873;28;20057;-85
2023/11/26 06:16:30;;;;;;;1999.90;999.90;;;;;;;;;;5056986;28;20052;-85
2023/11/26 06:18:57;;;;;;;1999.90;999.90;;;;;;;;;;5059116;28;20049;-85
2023/11/26 06:21:23;;;;;;;1999.90;999.90;;;;;;;;;;5061586;28;20048;-85
2023/11/26 06:23:51;;;;;;;1999.90;999.90;;;;;;;;;;5058086;28;20573;-85
2023/11/26 06:26:19;;;;;;;1999.90;999.90;;;;;;;;;;5058181;28;20082;-85
2023/11/26 06:28:45;;;;;;;1999.90;999.90;;;;;;;;;;5055906;28;20119;-85
2023/11/26 06:31:19;;;;;;;1999.90;999.90;;;;;;;;;;5058206;28;20049;-85
2023/11/26 06:33:46;;;;;;;1999.90;999.90;;;;;;;;;;5065923;28;20045;-85
2023/11/26 06:36:17;;;;;;;1999.90;999.90;;;;;;;;;;5057588;28;20387;-84
2023/11/26 06:38:44;;;;;;;1999.90;999.90;;;;;;;;;;5056877;28;20056;-84
2023/11/26 06:41:21;;;;;;;1999.90;999.90;;;;;;;;;;5066594;28;20052;-83
2023/11/26 06:43:48;;;;;;;1999.90;999.90;;;;;;;;;;5058511;28;20587;-85
2023/11/26 06:46:16;;;;;;;1999.90;999.90;;;;;;;;;;5056330;28;20510;-85
2023/11/26 06:48:43;;;;;;;1999.90;999.90;;;;;;;;;;5054712;28;20087;-84
2023/11/26 06:51:10;;;;;;;1999.90;999.90;;;;;;;;;;5054427;28;20045;-84
2023/11/26 06:53:37;;;;;;;1999.90;999.90;;;;;;;;;;5058235;28;20045;-85
2023/11/26 06:56:03;;;;;;;1999.90;999.90;;;;;;;;;;5053760;28;20482;-84
2023/11/26 06:58:31;;;;;;;1999.90;999.90;;;;;;;;;;5056748;28;20057;-85
2023/11/26 07:00:58;;;;;;;1999.90;999.90;;;;;;;;;;5057443;28;20044;-85
2023/11/26 07:03:25;;;;;;;1999.90;999.90;;;;;;;;;;5055066;28;20468;-85
2023/11/26 07:05:51;;;;;;;1999.90;999.90;;;;;;;;;;5058597;28;20056;-85
2023/11/26 07:08:18;;;;;;;1999.90;999.90;;;;;;;;;;5056630;28;20049;-85
2023/11/26 07:10:44;;;;;;;1999.90;999.90;;;;;;;;;;5039459;28;20511;-85
2023/11/26 07:13:11;;;;;;;1999.90;999.90;;;;;;;;;;5058663;28;20045;-85
2023/11/26 07:15:40;;;;;;;1999.90;999.90;;;;;;;;;;5059303;28;20059;-86
2023/11/26 07:18:06;;;;;;;1999.90;999.90;;;;;;;;;;5057881;28;20056;-86
2023/11/26 07:20:33;;;;;;;1999.90;999.90;;;;;;;;;;5060534;28;20053;-85
2023/11/26 07:23:00;;;;;;;1999.90;999.90;;;;;;;;;;5059192;28;20055;-85
2023/11/26 07:25:27;;;;;;;1999.90;999.90;;;;;;;;;;5054866;28;20083;-85
2023/11/26 07:27:53;;;;;;;1999.90;999.90;;;;;;;;;;5053457;28;20040;-85
2023/11/26 07:30:20;;;;;;;1999.90;999.90;;;;;;;;;;5058216;28;20486;-85
2023/11/26 07:32:50;;;;;;;1999.90;999.90;;;;;;;;;;5056895;28;20067;-85
2023/11/26 07:35:17;;;;;;;1999.90;999.90;;;;;;;;;;5056915;28;20044;-85
2023/11/26 07:37:43;;;;;;;1999.90;999.90;;;;;;;;;;5058477;28;20044;-84
2023/11/26 07:40:13;;;;;;;1999.90;999.90;;;;;;;;;;5056815;28;20059;-85
2023/11/26 07:42:40;;;;;;;1999.90;999.90;;;;;;;;;;5054458;28;20048;-85
2023/11/26 07:45:07;;;;;;;1999.90;999.90;;;;;;;;;;5060019;28;20135;-85
2023/11/26 07:47:34;;;;;;;1999.90;999.90;;;;;;;;;;5055391;28;20128;-85
2023/11/26 07:50:02;;;;;;;1999.90;999.90;;;;;;;;;;5055891;28;20048;-85
2023/11/26 07:52:28;;;;;;;1999.90;999.90;;;;;;;;;;5056837;28;20045;-85
2023/11/26 07:54:55;;;;;;;1999.90;999.90;;;;;;;;;;5056487;28;20055;-85
2023/11/26 07:57:22;;;;;;;1999.90;999.90;;;;;;;;;;5057035;28;20106;-85
2023/11/26 07:59:48;;;;;;;1999.90;999.90;;;;;;;;;;5056211;28;20059;-85
2023/11/26 08:02:15;;;;;;;1999.90;999.90;;;;;;;;;;5055539;28;20579;-85
2023/11/26 08:04:44;;;;;;;1999.90;999.90;;;;;;;;;;5058942;28;20045;-84
2023/11/26 08:07:11;;;;;;;1999.90;999.90;;;;;;;;;;5058794;28;20064;-85
2023/11/26 08:09:38;;;;;;;1999.90;999.90;;;;;;;;;;5055673;28;20053;-84
2023/11/26 08:12:05;;;;;;;1999.90;999.90;;;;;;;;;;5046268;28;20925;-84
2023/11/26 08:14:31;;;;;;;1999.90;999.90;;;;;;;;;;5056430;28;20083;-85
2023/11/26 08:16:58;;;;;;;1999.90;999.90;;;;;;;;;;5056463;28;20500;-84
2023/11/26 08:19:25;;;;;;;1999.90;999.90;;;;;;;;;;5060668;28;20048;-84
2023/11/26 08:21:54;;;;;;;1999.90;999.90;;;;;;;;;;5057474;28;20519;-84
2023/11/26 08:24:24;;;;;;;1999.90;999.90;;;;;;;;;;5058192;28;20041;-84
2023/11/26 08:26:51;;;;;;;1999.90;999.90;;;;;;;;;;5057094;28;20479;-84
2023/11/26 08:29:18;;;;;;;1999.90;999.90;;;;;;;;;;5056850;28;20052;-84
2023/11/26 08:31:46;;;;;;;1999.90;999.90;;;;;;;;;;5059981;28;20052;-84
2023/11/26 08:34:15;;;;;;;1999.90;999.90;;;;;;;;;;5061691;28;20052;-84
2023/11/26 08:36:42;;;;;;;1999.90;999.90;;;;;;;;;;5053552;28;20437;-84
2023/11/26 08:39:18;;;;;;;1999.90;999.90;;;;;;;;;;5058248;28;20044;-83
2023/11/26 08:41:46;;;;;;;1999.90;999.90;;;;;;;;;;5058742;28;20184;-84
2023/11/26 08:44:13;;;;;;;1999.90;999.90;;;;;;;;;;5061741;28;20053;-84
2023/11/26 08:46:41;;;;;;;1999.90;999.90;;;;;;;;;;5062453;28;20128;-85
2023/11/26 08:49:08;;;;;;;1999.90;999.90;;;;;;;;;;5061300;28;20136;-85
2023/11/26 08:51:36;;;;;;;1999.90;999.90;;;;;;;;;;5057078;28;20449;-86
2023/11/26 08:54:03;;;;;;;1999.90;999.90;;;;;;;;;;5055696;28;20040;-87
2023/11/26 08:56:30;;;;;;;1999.90;999.90;;;;;;;;;;5062581;28;20059;-87
2023/11/26 08:58:58;;;;;;;1999.90;999.90;;;;;;;;;;5060166;28;20317;-87
2023/11/26 09:01:25;;;;;;;1999.90;999.90;;;;;;;;;;5060122;28;20048;-87
2023/11/26 09:03:51;;;;;;;1999.90;999.90;;;;;;;;;;5061404;28;20132;-86
2023/11/26 09:06:19;;;;;;;1999.90;999.90;;;;;;;;;;5046710;28;20051;-87
2023/11/26 09:08:49;;;;;;;1999.90;999.90;;;;;;;;;;5064515;28;20049;-88
2023/11/26 09:11:15;;;;;;;1999.90;999.90;;;;;;;;;;5065745;28;20072;-90
2023/11/26 09:13:42;;;;;;;1999.90;999.90;;;;;;;;;;5073770;28;20040;-89
2023/11/26 09:16:10;;;;;;;1999.90;999.90;;;;;;;;;;5072854;28;20056;-88
2023/11/26 09:18:37;;;;;;;1999.90;999.90;;;;;;;;;;5069992;28;20053;-90
2023/11/26 09:21:03;;;;;;;1999.90;999.90;;;;;;;;;;5066142;28;20041;-92
2023/11/26 09:23:32;;;;;;;1999.90;999.90;;;;;;;;;;5068641;28;20069;-92
2023/11/26 09:25:59;;;;;;;1999.90;999.90;;;;;;;;;;5064744;28;20064;-89
2023/11/26 09:28:25;;;;;;;1999.90;999.90;;;;;;;;;;5063588;28;20045;-92
2023/11/26 09:30:52;;;;;;;1999.90;999.90;;;;;;;;;;5066841;28;20045;-93
2023/11/26 09:33:22;;;;;;;1999.90;999.90;;;;;;;;;;5065064;28;20056;-93
2023/11/26 09:35:48;;;;;;;1999.90;999.90;;;;;;;;;;5057484;28;20106;-92
2023/11/26 09:38:15;;;;;;;1999.90;999.90;;;;;;;;;;5057401;28;20049;-91
2023/11/26 09:40:41;;;;;;;1999.90;999.90;;;;;;;;;;5065787;28;20112;-93
2023/11/26 09:43:08;;;;;;;1999.90;999.90;;;;;;;;;;5062991;28;20049;-93
2023/11/26 09:45:34;;;;;;;1999.90;999.90;;;;;;;;;;5060770;28;20045;-93
2023/11/26 09:48:01;;;;;;;1999.90;999.90;;;;;;;;;;5060599;28;20521;-91
2023/11/26 09:50:29;;;;;;;1999.90;999.90;;;;;;;;;;5059746;28;20055;-91
2023/11/26 09:52:56;;;;;;;1999.90;999.90;;;;;;;;;;5062659;28;20041;-90
2023/11/26 09:55:23;;;;;;;1999.90;999.90;;;;;;;;;;5061445;28;20412;-93
2023/11/26 09:57:49;;;;;;;1999.90;999.90;;;;;;;;;;5061986;28;20045;-92
2023/11/26 10:00:17;;;;;;;1999.90;999.90;;;;;;;;;;5059874;28;20060;-90
2023/11/26 10:02:43;;;;;;;1999.90;999.90;;;;;;;;;;5057655;28;20049;-92
2023/11/26 10:05:23;;;;;;;1999.90;999.90;;;;;;;;;;5064139;28;20218;-90
2023/11/26 10:07:52;;;;;;;1999.90;999.90;;;;;;;;;;5060431;28;20064;-92
2023/11/26 10:10:20;;;;;;;1999.90;999.90;;;;;;;;;;5057685;28;20049;-89
2023/11/26 10:12:51;;;;;;;1999.90;999.90;;;;;;;;;;5053772;28;20116;-89
2023/11/26 10:15:19;;;;;;;1999.90;999.90;;;;;;;;;;5064692;28;20119;-88
2023/11/26 10:17:58;;;;;;;1999.90;999.90;;;;;;;;;;5071062;28;20048;-89
2023/11/26 10:20:25;;;;;;;1999.90;999.90;;;;;;;;;;5069340;28;20048;-91
2023/11/26 10:22:53;;;;;;;1999.90;999.90;;;;;;;;;;5070526;28;20484;-89
2023/11/26 10:25:20;;;;;;;1999.90;999.90;;;;;;;;;;5069878;28;20131;-90
2023/11/26 10:27:47;;;;;;;1999.90;999.90;;;;;;;;;;5065879;28;20052;-92
2023/11/26 10:30:24;;;;;;;1999.90;999.90;;;;;;;;;;5065740;28;20053;-86
2023/11/26 10:33:02;;;;;;;1999.90;999.90;;;;;;;;;;5067522;28;20040;-87
2023/11/26 10:35:44;;;;;;;1999.90;999.90;;;;;;;;;;5067084;28;20056;-89
2023/11/26 10:38:13;;;;;;;1999.90;999.90;;;;;;;;;;5067609;28;20049;-88
2023/11/26 10:40:41;;;;;;;1999.90;999.90;;;;;;;;;;5073028;28;20096;-88
2023/11/26 10:43:08;;;;;;;1999.90;999.90;;;;;;;;;;5067613;28;20049;-88
2023/11/26 10:45:36;;;;;;;1999.90;999.90;;;;;;;;;;5063238;28;20064;-86
2023/11/26 10:48:08;;;;;;;1999.90;999.90;;;;;;;;;;5068523;28;20456;-90
2023/11/26 10:50:39;;;;;;;1999.90;999.90;;;;;;;;;;5070361;28;20094;-92
2023/11/26 10:53:06;;;;;;;1999.90;999.90;;;;;;;;;;5065477;28;20049;-91
2023/11/26 10:55:37;;;;;;;1999.90;999.90;;;;;;;;;;5074161;28;20055;-93
2023/11/26 10:58:08;;;;;;;1999.90;999.90;;;;;;;;;;5070470;28;20045;-91
2023/11/26 11:00:39;;;;;;;1999.90;999.90;;;;;;;;;;5073249;28;20113;-88
2023/11/26 11:03:06;;;;;;;1999.90;999.90;;;;;;;;;;5070728;28;20086;-88
2023/11/26 11:05:34;;;;;;;1999.90;999.90;;;;;;;;;;5069118;28;20082;-89
2023/11/26 11:08:00;;;;;;;1999.90;999.90;;;;;;;;;;5072518;28;20076;-90
2023/11/26 11:10:41;;;;;;;1999.90;999.90;;;;;;;;;;5065414;28;20078;-90
2023/11/26 11:13:13;;;;;;;1999.90;999.90;;;;;;;;;;5066487;28;20067;-91
2023/11/26 11:15:40;;;;;;;1999.90;999.90;;;;;;;;;;5063623;28;20041;-91
2023/11/26 11:18:37;;;;;;;1999.90;999.90;;;;;;;;;;5063259;28;20057;-90
2023/11/26 11:21:08;;;;;;;1999.90;999.90;;;;;;;;;;5052395;28;20045;-92
2023/11/26 11:23:37;;;;;;;1999.90;999.90;;;;;;;;;;5061316;28;20049;-89
2023/11/26 11:26:06;;;;;;;1999.90;999.90;;;;;;;;;;5065709;28;20052;-94
2023/11/26 11:28:37;;;;;;;1999.90;999.90;;;;;;;;;;5065534;28;20047;-94
2023/11/26 11:31:05;;;;;;;1999.90;999.90;;;;;;;;;;5061516;28;20055;-93
2023/11/26 11:33:31;;;;;;;1999.90;999.90;;;;;;;;;;5063196;28;20497;-93
2023/11/26 11:35:58;;;;;;;1999.90;999.90;;;;;;;;;;5058963;28;20401;-92
2023/11/26 11:38:26;;;;;;;1999.90;999.90;;;;;;;;;;5059177;28;20147;-89
2023/11/26 11:41:13;;;;;;;1999.90;999.90;;;;;;;;;;5056949;28;20049;-90
2023/11/26 11:43:40;;;;;;;1999.90;999.90;;;;;;;;;;5059952;28;20109;-90
2023/11/26 11:46:44;;;;;;;1999.90;999.90;;;;;;;;;;5059437;28;20060;-91
2023/11/26 11:49:11;;;;;;;1999.90;999.90;;;;;;;;;;5053501;28;20048;-87
2023/11/26 11:51:40;;;;;;;1999.90;999.90;;;;;;;;;;5061805;28;20044;-90
2023/11/26 11:54:47;;;;;;;1999.90;999.90;;;;;;;;;;5058701;28;20416;-86
2023/11/26 11:57:16;;;;;;;1999.90;999.90;;;;;;;;;;5037665;28;20386;-91
2023/11/26 11:59:44;;;;;;;1999.90;999.90;;;;;;;;;;5061509;28;20052;-88
2023/11/26 12:02:11;;;;;;;1999.90;999.90;;;;;;;;;;5059065;28;20080;-92
2023/11/26 12:04:42;;;;;;;1999.90;999.90;;;;;;;;;;5058987;28;20126;-89
2023/11/26 12:07:09;;;;;;;1999.90;999.90;;;;;;;;;;5060427;28;20492;-91
2023/11/26 12:09:36;;;;;;;1999.90;999.90;;;;;;;;;;5050063;28;20303;-90
2023/11/26 12:12:03;;;;;;;1999.90;999.90;;;;;;;;;;5057798;28;20507;-90
2023/11/26 12:14:32;;;;;;;1999.90;999.90;;;;;;;;;;5062219;28;20568;-88
2023/11/26 12:17:00;;;;;;;1999.90;999.90;;;;;;;;;;5058539;28;20049;-90
2023/11/26 12:19:27;;;;;;;1999.90;999.90;;;;;;;;;;5056855;28;20049;-90
2023/11/26 12:22:01;;;;;;;1999.90;999.90;;;;;;;;;;5062207;28;20302;-92
2023/11/26 12:24:29;;;;;;;1999.90;999.90;;;;;;;;;;5059348;28;20044;-93
2023/11/26 12:26:55;;;;;;;1999.90;999.90;;;;;;;;;;5061929;28;20045;-90
2023/11/26 12:29:26;;;;;;;1999.90;999.90;;;;;;;;;;5067502;28;20046;-91
2023/11/26 12:31:56;;;;;;;1999.90;999.90;;;;;;;;;;5064602;28;20105;-92
2023/11/26 12:34:23;;;;;;;1999.90;999.90;;;;;;;;;;5068645;28;20056;-92
2023/11/26 12:36:50;;;;;;;1999.90;999.90;;;;;;;;;;5069900;28;20136;-91
2023/11/26 12:39:18;;;;;;;1999.90;999.90;;;;;;;;;;5063644;28;20467;-92
2023/11/26 12:41:44;;;;;;;1999.90;999.90;;;;;;;;;;5064102;28;20056;-89
2023/11/26 12:44:11;;;;;;;1999.90;999.90;;;;;;;;;;5063825;28;20582;-92
2023/11/26 12:46:39;;;;;;;1999.90;999.90;;;;;;;;;;5063534;28;20044;-93
2023/11/26 12:49:15;;;;;;;1999.90;999.90;;;;;;;;;;5064719;28;20125;-92
2023/11/26 12:51:41;;;;;;;;;;;;;;;;;;5064940;28;20052;-91
2023/11/26 12:54:08;;;;;;;1999.90;999.90;;;;;;;;;;5063070;28;19969;-88
2023/11/26 12:56:35;;;;;;;1999.90;999.90;;;;;;;;;;5062647;28;20278;-92
2023/11/26 12:59:03;;;;;;;1999.90;999.90;;;;;;;;;;5065658;28;20136;-90
2023/11/26 13:01:33;;;;;;;1999.90;999.90;;;;;;;;;;5063161;28;20049;-90
2023/11/26 13:04:00;;;;;;;1999.90;999.90;;;;;;;;;;5066485;28;20084;-89
2023/11/26 13:06:29;;;;;;;1999.90;999.90;;;;;;;;;;5066414;28;20508;-91
2023/11/26 13:09:07;;;;;;;1999.90;999.90;;;;;;;;;;5068376;28;20053;-89
2023/11/26 13:11:36;;;;;;;1999.90;999.90;;;;;;;;;;5064262;28;20053;-91
2023/11/26 13:14:04;;;;;;;1999.90;999.90;;;;;;;;;;5047702;28;20081;-91
2023/11/26 13:16:30;;;;;;;1999.90;999.90;;;;;;;;;;5052964;28;20400;-89
2023/11/26 13:18:57;;;;;;;1999.90;999.90;;;;;;;;;;5066064;28;20426;-91
2023/11/26 13:21:23;;;;;;;1999.90;999.90;;;;;;;;;;5064013;28;20053;-92
2023/11/26 13:23:51;;;;;;;1999.90;999.90;;;;;;;;;;5059956;28;20068;-90
2023/11/26 13:26:18;;;;;;;1999.90;999.90;;;;;;;;;;5064984;28;20044;-93
2023/11/26 13:28:45;;;;;;;1999.90;999.90;;;;;;;;;;5061574;28;20045;-92
2023/11/26 13:31:12;;;;;;;1999.90;999.90;;;;;;;;;;5062311;28;20055;-92
2023/11/26 13:33:38;;;;;;;1999.90;999.90;;;;;;;;;;5060386;28;20042;-93
2023/11/26 13:36:05;;;;;;;1999.90;999.90;;;;;;;;;;5060891;28;20064;-90
2023/11/26 13:38:32;;;;;;;1999.90;999.90;;;;;;;;;;5063011;28;20044;-92
2023/11/26 13:41:00;;;;;;;1999.90;999.90;;;;;;;;;;5062523;28;20704;-91
2023/11/26 13:43:28;;;;;;;1999.90;999.90;;;;;;;;;;5059807;28;20064;-89
2023/11/26 13:45:55;;;;;;;1999.90;999.90;;;;;;;;;;5056937;28;20056;-90
2023/11/26 13:48:24;;;;;;;1999.90;999.90;;;;;;;;;;5063552;28;20474;-89